sensor_id;sensor_type;location;lat;lon;timestamp;pressure;altitude;pressure_sealevel;temperature;humidity
24230;BME280;12362;50.004;8.006;2023-04-20T00:01:37;100763.44;;;7.43;98.05
24230;BME280;12362;50.004;8.006;2023-04-20T00:04:03;100750.47;;;7.44;97.53
24230;BME280;12362;50.004;8.006;2023-04-20T00:06:29;100750.69;;;7.38;98.80
24230;BME280;12362;50.004;8.006;2023-04-20T00:08:56;100753.19;;;7.40;97.85
24230;BME280;12362;50.004;8.006;2023-04-20T00:11:22;100749.78;;;7.39;97.15
24230;BME280;12362;50.004;8.006;2023-04-20T00:13:47;100747.94;;;7.43;99.63
24230;BME280;12362;50.004;8.006;2023-04-20T00:16:17;100735.03;;;7.43;98.27
24230;BME280;12362;50.004;8.006;2023-04-20T00:18:46;100736.97;;;7.36;100.00
24230;BME280;12362;50.004;8.006;2023-04-20T00:21:12;100733.84;;;7.25;100.00
24230;BME280;12362;50.004;8.006;2023-04-20T00:23:38;100726.25;;;7.21;100.00
24230;BME280;12362;50.004;8.006;2023-04-20T00:26:03;100726.34;;;7.18;100.00
24230;BME280;12362;50.004;8.006;2023-04-20T00:28:29;100724.81;;;7.11;100.00
24230;BME280;12362;50.004;8.006;2023-04-20T00:30:55;100721.66;;;7.02;100.00
24230;BME280;12362;50.004;8.006;2023-04-20T00:33:26;100726.72;;;7.05;100.00
24230;BME280;12362;50.004;8.006;2023-04-20T00:35:52;100709.72;;;6.98;100.00
24230;BME280;12362;50.004;8.006;2023-04-20T00:38:18;100715.25;;;6.86;100.00
24230;BME280;12362;50.004;8.006;2023-04-20T00:40:43;100707.09;;;6.70;100.00
24230;BME280;12362;50.004;8.006;2023-04-20T00:43:14;100711.44;;;6.68;100.00
24230;BME280;12362;50.004;8.006;2023-04-20T00:45:40;100720.81;;;6.42;100.00
24230;BME280;12362;50.004;8.006;2023-04-20T00:48:06;100718.72;;;5.91;100.00
24230;BME280;12362;50.004;8.006;2023-04-20T00:50:32;100722.38;;;5.81;100.00
24230;BME280;12362;50.004;8.006;2023-04-20T00:52:59;100727.78;;;5.69;100.00
24230;BME280;12362;50.004;8.006;2023-04-20T00:55:29;100715.91;;;5.63;100.00
24230;BME280;12362;50.004;8.006;2023-04-20T00:57:55;100717.66;;;5.63;100.00
24230;BME280;12362;50.004;8.006;2023-04-20T01:00:24;100716.13;;;5.54;100.00
24230;BME280;12362;50.004;8.006;2023-04-20T01:02:51;100711.03;;;5.53;100.00
24230;BME280;12362;50.004;8.006;2023-04-20T01:05:17;100706.19;;;5.39;100.00
24230;BME280;12362;50.004;8.006;2023-04-20T01:07:42;100700.81;;;5.12;100.00
24230;BME280;12362;50.004;8.006;2023-04-20T01:10:13;100706.31;;;4.97;100.00
24230;BME280;12362;50.004;8.006;2023-04-20T01:12:39;100692.22;;;5.13;100.00
24230;BME280;12362;50.004;8.006;2023-04-20T01:15:05;100700.53;;;4.86;100.00
24230;BME280;12362;50.004;8.006;2023-04-20T01:17:34;100700.59;;;4.83;100.00
24230;BME280;12362;50.004;8.006;2023-04-20T01:20:08;100693.66;;;4.87;100.00
24230;BME280;12362;50.004;8.006;2023-04-20T01:22:46;100693.16;;;4.71;100.00
24230;BME280;12362;50.004;8.006;2023-04-20T01:25:13;100697.88;;;4.91;100.00
24230;BME280;12362;50.004;8.006;2023-04-20T01:27:39;100679.22;;;5.19;100.00
24230;BME280;12362;50.004;8.006;2023-04-20T01:30:05;100678.81;;;4.99;100.00
24230;BME280;12362;50.004;8.006;2023-04-20T01:32:31;100681.59;;;4.90;100.00
24230;BME280;12362;50.004;8.006;2023-04-20T01:34:57;100674.94;;;4.80;100.00
24230;BME280;12362;50.004;8.006;2023-04-20T01:37:23;100674.72;;;4.50;100.00
24230;BME280;12362;50.004;8.006;2023-04-20T01:39:49;100678.44;;;4.36;100.00
24230;BME280;12362;50.004;8.006;2023-04-20T01:42:14;100677.47;;;4.41;100.00
24230;BME280;12362;50.004;8.006;2023-04-20T01:44:40;100671.63;;;4.35;100.00
24230;BME280;12362;50.004;8.006;2023-04-20T01:47:08;100669.97;;;4.31;100.00
24230;BME280;12362;50.004;8.006;2023-04-20T01:49:34;100661.38;;;4.32;100.00
24230;BME280;12362;50.004;8.006;2023-04-20T01:52:00;100658.09;;;4.25;100.00
24230;BME280;12362;50.004;8.006;2023-04-20T01:54:25;100663.31;;;4.21;100.00
24230;BME280;12362;50.004;8.006;2023-04-20T01:56:52;100660.84;;;4.15;100.00
24230;BME280;12362;50.004;8.006;2023-04-20T01:59:17;100656.44;;;4.23;100.00
24230;BME280;12362;50.004;8.006;2023-04-20T02:01:43;100659.28;;;4.08;100.00
24230;BME280;12362;50.004;8.006;2023-04-20T02:04:09;100657.81;;;3.95;100.00
24230;BME280;12362;50.004;8.006;2023-04-20T02:06:34;100658.50;;;4.03;100.00
24230;BME280;12362;50.004;8.006;2023-04-20T02:09:00;100664.91;;;3.81;100.00
24230;BME280;12362;50.004;8.006;2023-04-20T02:11:26;100664.38;;;3.62;100.00
24230;BME280;12362;50.004;8.006;2023-04-20T02:13:51;100663.53;;;3.62;100.00
24230;BME280;12362;50.004;8.006;2023-04-20T02:16:18;100663.78;;;3.49;100.00
24230;BME280;12362;50.004;8.006;2023-04-20T02:18:44;100657.53;;;3.61;100.00
24230;BME280;12362;50.004;8.006;2023-04-20T02:21:12;100652.31;;;3.67;100.00
24230;BME280;12362;50.004;8.006;2023-04-20T02:23:38;100655.59;;;3.77;100.00
24230;BME280;12362;50.004;8.006;2023-04-20T02:26:04;100653.09;;;3.71;100.00
24230;BME280;12362;50.004;8.006;2023-04-20T02:28:30;100653.50;;;3.47;100.00
24230;BME280;12362;50.004;8.006;2023-04-20T02:30:55;100647.78;;;3.32;100.00
24230;BME280;12362;50.004;8.006;2023-04-20T02:33:21;100653.75;;;3.34;100.00
24230;BME280;12362;50.004;8.006;2023-04-20T02:35:51;100650.88;;;3.52;100.00
24230;BME280;12362;50.004;8.006;2023-04-20T02:38:16;100644.97;;;3.47;100.00
24230;BME280;12362;50.004;8.006;2023-04-20T02:40:42;100645.81;;;3.47;100.00
24230;BME280;12362;50.004;8.006;2023-04-20T02:43:08;100642.22;;;3.57;100.00
24230;BME280;12362;50.004;8.006;2023-04-20T02:45:34;100636.13;;;3.64;100.00
24230;BME280;12362;50.004;8.006;2023-04-20T02:48:00;100636.16;;;3.61;100.00
24230;BME280;12362;50.004;8.006;2023-04-20T02:50:29;100638.00;;;3.55;100.00
24230;BME280;12362;50.004;8.006;2023-04-20T02:53:06;100631.94;;;3.57;100.00
24230;BME280;12362;50.004;8.006;2023-04-20T02:55:34;100631.88;;;3.61;100.00
24230;BME280;12362;50.004;8.006;2023-04-20T02:58:06;100625.81;;;3.65;100.00
24230;BME280;12362;50.004;8.006;2023-04-20T03:00:59;100623.81;;;3.82;100.00
24230;BME280;12362;50.004;8.006;2023-04-20T03:03:25;100620.06;;;4.00;100.00
24230;BME280;12362;50.004;8.006;2023-04-20T03:05:52;100623.38;;;4.05;100.00
24230;BME280;12362;50.004;8.006;2023-04-20T03:08:17;100617.03;;;4.22;100.00
24230;BME280;12362;50.004;8.006;2023-04-20T03:10:45;100608.09;;;4.40;100.00
24230;BME280;12362;50.004;8.006;2023-04-20T03:13:17;100610.41;;;4.53;100.00
24230;BME280;12362;50.004;8.006;2023-04-20T03:15:52;100601.13;;;4.85;100.00
24230;BME280;12362;50.004;8.006;2023-04-20T03:18:36;100611.13;;;4.97;100.00
24230;BME280;12362;50.004;8.006;2023-04-20T03:21:02;100612.50;;;5.12;100.00
24230;BME280;12362;50.004;8.006;2023-04-20T03:23:29;100603.81;;;5.16;100.00
24230;BME280;12362;50.004;8.006;2023-04-20T03:25:56;100605.44;;;5.20;100.00
24230;BME280;12362;50.004;8.006;2023-04-20T03:28:35;100602.31;;;5.42;100.00
24230;BME280;12362;50.004;8.006;2023-04-20T03:31:01;100591.66;;;5.55;100.00
24230;BME280;12362;50.004;8.006;2023-04-20T03:33:28;100598.56;;;5.55;100.00
24230;BME280;12362;50.004;8.006;2023-04-20T03:35:54;100598.19;;;5.68;100.00
24230;BME280;12362;50.004;8.006;2023-04-20T03:38:20;100596.19;;;5.79;100.00
24230;BME280;12362;50.004;8.006;2023-04-20T03:40:46;100598.53;;;5.88;100.00
24230;BME280;12362;50.004;8.006;2023-04-20T03:43:14;100596.75;;;5.90;100.00
24230;BME280;12362;50.004;8.006;2023-04-20T03:45:40;100592.25;;;5.98;100.00
24230;BME280;12362;50.004;8.006;2023-04-20T03:48:05;100589.47;;;6.06;100.00
24230;BME280;12362;50.004;8.006;2023-04-20T03:50:31;100587.53;;;6.14;100.00
24230;BME280;12362;50.004;8.006;2023-04-20T03:52:57;100582.91;;;6.25;100.00
24230;BME280;12362;50.004;8.006;2023-04-20T03:55:22;100574.19;;;6.28;100.00
24230;BME280;12362;50.004;8.006;2023-04-20T03:57:55;100581.00;;;6.31;100.00
24230;BME280;12362;50.004;8.006;2023-04-20T04:00:21;100572.41;;;6.32;100.00
24230;BME280;12362;50.004;8.006;2023-04-20T04:02:56;100569.00;;;6.30;100.00
24230;BME280;12362;50.004;8.006;2023-04-20T04:05:26;100562.03;;;6.33;100.00
24230;BME280;12362;50.004;8.006;2023-04-20T04:07:52;100564.38;;;6.41;100.00
24230;BME280;12362;50.004;8.006;2023-04-20T04:10:17;100565.13;;;6.44;100.00
24230;BME280;12362;50.004;8.006;2023-04-20T04:12:44;100565.00;;;6.49;100.00
24230;BME280;12362;50.004;8.006;2023-04-20T04:15:10;100566.69;;;6.50;100.00
24230;BME280;12362;50.004;8.006;2023-04-20T04:17:44;100567.56;;;6.49;100.00
24230;BME280;12362;50.004;8.006;2023-04-20T04:20:10;100570.16;;;6.49;100.00
24230;BME280;12362;50.004;8.006;2023-04-20T04:22:36;100564.78;;;6.56;100.00
24230;BME280;12362;50.004;8.006;2023-04-20T04:25:21;100565.38;;;6.64;100.00
24230;BME280;12362;50.004;8.006;2023-04-20T04:27:48;100573.97;;;6.65;100.00
24230;BME280;12362;50.004;8.006;2023-04-20T04:30:14;100565.50;;;6.60;100.00
24230;BME280;12362;50.004;8.006;2023-04-20T04:32:41;100571.41;;;6.63;100.00
24230;BME280;12362;50.004;8.006;2023-04-20T04:35:09;100571.41;;;6.63;100.00
24230;BME280;12362;50.004;8.006;2023-04-20T04:37:35;100580.91;;;6.63;100.00
24230;BME280;12362;50.004;8.006;2023-04-20T04:40:01;100574.13;;;6.59;100.00
24230;BME280;12362;50.004;8.006;2023-04-20T04:42:34;100570.72;;;6.58;100.00
24230;BME280;12362;50.004;8.006;2023-04-20T04:45:02;100572.50;;;6.56;100.00
24230;BME280;12362;50.004;8.006;2023-04-20T04:47:34;100567.03;;;6.67;100.00
24230;BME280;12362;50.004;8.006;2023-04-20T04:50:02;100567.25;;;6.59;100.00
24230;BME280;12362;50.004;8.006;2023-04-20T04:52:28;100568.16;;;6.58;100.00
24230;BME280;12362;50.004;8.006;2023-04-20T04:54:53;100562.91;;;6.61;100.00
24230;BME280;12362;50.004;8.006;2023-04-20T04:57:19;100563.00;;;6.58;100.00
24230;BME280;12362;50.004;8.006;2023-04-20T04:59:45;100564.63;;;6.61;100.00
24230;BME280;12362;50.004;8.006;2023-04-20T05:02:10;100564.03;;;6.53;100.00
24230;BME280;12362;50.004;8.006;2023-04-20T05:04:36;100565.50;;;6.60;100.00
24230;BME280;12362;50.004;8.006;2023-04-20T05:07:04;100565.50;;;6.61;100.00
24230;BME280;12362;50.004;8.006;2023-04-20T05:09:30;100569.22;;;6.51;100.00
24230;BME280;12362;50.004;8.006;2023-04-20T05:12:00;100559.22;;;6.41;100.00
24230;BME280;12362;50.004;8.006;2023-04-20T05:14:27;100565.13;;;6.44;100.00
24230;BME280;12362;50.004;8.006;2023-04-20T05:16:54;100562.59;;;6.43;100.00
24230;BME280;12362;50.004;8.006;2023-04-20T05:19:20;100571.78;;;6.51;100.00
24230;BME280;12362;50.004;8.006;2023-04-20T05:21:47;100566.47;;;6.57;100.00
24230;BME280;12362;50.004;8.006;2023-04-20T05:24:13;100571.34;;;6.66;100.00
24230;BME280;12362;50.004;8.006;2023-04-20T05:26:38;100572.09;;;6.70;100.00
24230;BME280;12362;50.004;8.006;2023-04-20T05:29:04;100570.22;;;6.75;100.00
24230;BME280;12362;50.004;8.006;2023-04-20T05:31:29;100569.34;;;6.76;100.00
24230;BME280;12362;50.004;8.006;2023-04-20T05:33:57;100577.13;;;6.74;100.00
24230;BME280;12362;50.004;8.006;2023-04-20T05:36:23;100573.31;;;6.86;100.00
24230;BME280;12362;50.004;8.006;2023-04-20T05:38:49;100571.38;;;6.92;100.00
24230;BME280;12362;50.004;8.006;2023-04-20T05:41:15;100577.53;;;6.88;100.00
24230;BME280;12362;50.004;8.006;2023-04-20T05:43:40;100564.09;;;6.79;100.00
24230;BME280;12362;50.004;8.006;2023-04-20T05:46:06;100567.47;;;6.81;100.00
24230;BME280;12362;50.004;8.006;2023-04-20T05:48:31;100566.47;;;6.85;100.00
24230;BME280;12362;50.004;8.006;2023-04-20T05:50:57;100569.75;;;6.90;100.00
24230;BME280;12362;50.004;8.006;2023-04-20T05:53:23;100574.19;;;6.85;100.00
24230;BME280;12362;50.004;8.006;2023-04-20T05:55:48;100566.22;;;6.92;100.00
24230;BME280;12362;50.004;8.006;2023-04-20T05:58:15;100562.75;;;6.93;100.00
24230;BME280;12362;50.004;8.006;2023-04-20T06:00:41;100573.00;;;6.96;100.00
24230;BME280;12362;50.004;8.006;2023-04-20T06:03:07;100575.44;;;6.99;100.00
24230;BME280;12362;50.004;8.006;2023-04-20T06:05:33;100576.91;;;7.08;100.00
24230;BME280;12362;50.004;8.006;2023-04-20T06:08:00;100578.28;;;7.18;100.00
24230;BME280;12362;50.004;8.006;2023-04-20T06:10:25;100577.13;;;7.27;100.00
24230;BME280;12362;50.004;8.006;2023-04-20T06:12:56;100583.97;;;7.28;100.00
24230;BME280;12362;50.004;8.006;2023-04-20T06:15:22;100583.13;;;7.28;100.00
24230;BME280;12362;50.004;8.006;2023-04-20T06:17:48;100578.69;;;7.31;100.00
24230;BME280;12362;50.004;8.006;2023-04-20T06:20:15;100581.78;;;7.42;100.00
24230;BME280;12362;50.004;8.006;2023-04-20T06:22:42;100586.66;;;7.51;100.00
24230;BME280;12362;50.004;8.006;2023-04-20T06:25:11;100579.75;;;7.52;100.00
24230;BME280;12362;50.004;8.006;2023-04-20T06:27:38;100582.25;;;7.53;100.00
24230;BME280;12362;50.004;8.006;2023-04-20T06:30:04;100581.09;;;7.37;100.00
24230;BME280;12362;50.004;8.006;2023-04-20T07:24:54;100582.47;;;7.21;100.00
24230;BME280;12362;50.004;8.006;2023-04-20T07:27:23;100578.44;;;7.13;100.00
24230;BME280;12362;50.004;8.006;2023-04-20T07:30:52;100579.16;;;7.18;100.00
24230;BME280;12362;50.004;8.006;2023-04-20T07:37:19;100575.13;;;7.35;100.00
24230;BME280;12362;50.004;8.006;2023-04-20T07:40:06;100576.84;;;7.35;100.00
24230;BME280;12362;50.004;8.006;2023-04-20T07:42:33;100581.25;;;7.33;100.00
24230;BME280;12362;50.004;8.006;2023-04-20T07:44:59;100576.50;;;7.19;100.00
24230;BME280;12362;50.004;8.006;2023-04-20T07:47:24;100578.22;;;7.20;100.00
24230;BME280;12362;50.004;8.006;2023-04-20T07:49:50;100581.75;;;7.18;100.00
24230;BME280;12362;50.004;8.006;2023-04-20T07:52:15;100580.00;;;7.18;100.00
24230;BME280;12362;50.004;8.006;2023-04-20T07:54:45;100573.09;;;7.19;100.00
24230;BME280;12362;50.004;8.006;2023-04-20T07:57:11;100581.03;;;7.13;100.00
24230;BME280;12362;50.004;8.006;2023-04-20T07:59:37;100576.22;;;7.03;100.00
24230;BME280;12362;50.004;8.006;2023-04-20T08:02:05;100576.81;;;7.11;100.00
24230;BME280;12362;50.004;8.006;2023-04-20T08:04:31;100574.66;;;7.23;100.00
24230;BME280;12362;50.004;8.006;2023-04-20T08:06:56;100586.53;;;7.28;100.00
24230;BME280;12362;50.004;8.006;2023-04-20T08:09:22;100585.31;;;7.14;100.00
24230;BME280;12362;50.004;8.006;2023-04-20T08:11:49;100592.47;;;7.05;100.00
24230;BME280;12362;50.004;8.006;2023-04-20T08:14:15;100589.16;;;7.01;100.00
24230;BME280;12362;50.004;8.006;2023-04-20T08:16:40;100594.38;;;7.00;100.00
24230;BME280;12362;50.004;8.006;2023-04-20T08:19:06;100590.13;;;7.24;100.00
24230;BME280;12362;50.004;8.006;2023-04-20T08:21:38;100592.06;;;7.44;100.00
24230;BME280;12362;50.004;8.006;2023-04-20T08:24:04;100591.28;;;7.66;100.00
24230;BME280;12362;50.004;8.006;2023-04-20T08:26:31;100599.03;;;7.66;100.00
24230;BME280;12362;50.004;8.006;2023-04-20T08:28:58;100587.06;;;7.88;100.00
24230;BME280;12362;50.004;8.006;2023-04-20T08:31:24;100585.81;;;8.00;100.00
24230;BME280;12362;50.004;8.006;2023-04-20T08:33:51;100591.59;;;8.30;100.00
24230;BME280;12362;50.004;8.006;2023-04-20T08:36:20;100578.66;;;8.76;100.00
24230;BME280;12362;50.004;8.006;2023-04-20T08:38:51;100571.44;;;9.05;100.00
24230;BME280;12362;50.004;8.006;2023-04-20T08:41:18;100559.31;;;9.67;100.00
24230;BME280;12362;50.004;8.006;2023-04-20T08:43:43;100555.59;;;9.93;100.00
24230;BME280;12362;50.004;8.006;2023-04-20T08:46:09;100543.31;;;10.16;100.00
24230;BME280;12362;50.004;8.006;2023-04-20T08:48:36;100537.00;;;10.21;100.00
24230;BME280;12362;50.004;8.006;2023-04-20T08:51:03;100545.84;;;9.99;100.00
24230;BME280;12362;50.004;8.006;2023-04-20T08:53:32;100551.38;;;9.90;100.00
24230;BME280;12362;50.004;8.006;2023-04-20T08:55:58;100549.13;;;9.83;100.00
24230;BME280;12362;50.004;8.006;2023-04-20T08:58:28;100549.69;;;9.89;100.00
24230;BME280;12362;50.004;8.006;2023-04-20T09:00:54;100554.78;;;9.72;100.00
24230;BME280;12362;50.004;8.006;2023-04-20T09:03:39;100542.25;;;9.62;100.00
24230;BME280;12362;50.004;8.006;2023-04-20T09:06:16;100551.66;;;9.44;100.00
24230;BME280;12362;50.004;8.006;2023-04-20T09:08:44;100552.31;;;9.49;100.00
24230;BME280;12362;50.004;8.006;2023-04-20T09:11:24;100542.13;;;9.65;100.00
24230;BME280;12362;50.004;8.006;2023-04-20T09:14:16;100538.81;;;10.01;100.00
24230;BME280;12362;50.004;8.006;2023-04-20T09:16:53;100531.72;;;9.85;100.00
24230;BME280;12362;50.004;8.006;2023-04-20T09:19:25;100534.78;;;9.94;100.00
24230;BME280;12362;50.004;8.006;2023-04-20T09:21:53;100530.94;;;9.64;100.00
24230;BME280;12362;50.004;8.006;2023-04-20T09:24:21;100530.00;;;9.65;100.00
24230;BME280;12362;50.004;8.006;2023-04-20T09:26:47;100522.69;;;9.75;100.00
24230;BME280;12362;50.004;8.006;2023-04-20T09:29:20;100517.88;;;10.05;100.00
24230;BME280;12362;50.004;8.006;2023-04-20T09:31:55;100525.81;;;10.21;100.00
24230;BME280;12362;50.004;8.006;2023-04-20T09:34:24;100519.34;;;10.11;100.00
24230;BME280;12362;50.004;8.006;2023-04-20T09:36:51;100522.44;;;10.37;100.00
24230;BME280;12362;50.004;8.006;2023-04-20T09:39:22;100506.03;;;11.07;100.00
24230;BME280;12362;50.004;8.006;2023-04-20T09:41:49;100500.63;;;11.29;100.00
24230;BME280;12362;50.004;8.006;2023-04-20T09:44:16;100506.56;;;11.14;100.00
24230;BME280;12362;50.004;8.006;2023-04-20T09:46:43;100500.41;;;11.50;100.00
24230;BME280;12362;50.004;8.006;2023-04-20T09:49:11;100503.19;;;11.64;100.00
24230;BME280;12362;50.004;8.006;2023-04-20T09:51:39;100489.56;;;11.91;100.00
24230;BME280;12362;50.004;8.006;2023-04-20T09:54:11;100492.91;;;11.78;100.00
24230;BME280;12362;50.004;8.006;2023-04-20T09:56:38;100479.72;;;11.81;100.00
24230;BME280;12362;50.004;8.006;2023-04-20T09:59:04;100484.25;;;11.77;100.00
24230;BME280;12362;50.004;8.006;2023-04-20T10:01:33;100483.13;;;11.49;100.00
24230;BME280;12362;50.004;8.006;2023-04-20T10:04:02;100479.69;;;12.13;100.00
24230;BME280;12362;50.004;8.006;2023-04-20T10:08:56;100467.44;;;13.22;100.00
24230;BME280;12362;50.004;8.006;2023-04-20T10:11:33;100447.28;;;14.23;100.00
24230;BME280;12362;50.004;8.006;2023-04-20T10:14:20;100438.03;;;15.85;100.00
24230;BME280;12362;50.004;8.006;2023-04-20T10:17:07;100421.00;;;16.63;94.26
24230;BME280;12362;50.004;8.006;2023-04-20T10:19:42;100427.66;;;15.21;100.00
24230;BME280;12362;50.004;8.006;2023-04-20T10:22:13;100415.53;;;15.20;99.06
24230;BME280;12362;50.004;8.006;2023-04-20T10:24:49;100432.09;;;13.60;100.00
24230;BME280;12362;50.004;8.006;2023-04-20T10:27:19;100426.97;;;13.15;100.00
24230;BME280;12362;50.004;8.006;2023-04-20T10:29:45;100425.50;;;13.11;100.00
24230;BME280;12362;50.004;8.006;2023-04-20T10:32:26;100416.31;;;13.33;100.00
24230;BME280;12362;50.004;8.006;2023-04-20T10:35:03;100405.94;;;14.29;100.00
24230;BME280;12362;50.004;8.006;2023-04-20T10:37:29;100409.38;;;14.30;100.00
24230;BME280;12362;50.004;8.006;2023-04-20T10:39:56;100393.25;;;14.09;100.00
24230;BME280;12362;50.004;8.006;2023-04-20T10:42:24;100399.00;;;13.46;100.00
24230;BME280;12362;50.004;8.006;2023-04-20T10:44:53;100394.34;;;13.51;100.00
24230;BME280;12362;50.004;8.006;2023-04-20T10:47:30;100394.81;;;13.44;100.00
24230;BME280;12362;50.004;8.006;2023-04-20T10:50:12;100392.25;;;13.14;100.00
24230;BME280;12362;50.004;8.006;2023-04-20T10:52:42;100395.53;;;13.18;100.00
24230;BME280;12362;50.004;8.006;2023-04-20T10:55:25;100384.75;;;13.38;100.00
24230;BME280;12362;50.004;8.006;2023-04-20T10:57:59;100387.94;;;14.25;94.08
24230;BME280;12362;50.004;8.006;2023-04-20T11:00:26;100374.34;;;14.85;94.50
24230;BME280;12362;50.004;8.006;2023-04-20T11:02:54;100358.63;;;15.97;87.41
24230;BME280;12362;50.004;8.006;2023-04-20T11:05:25;100339.06;;;16.94;75.39
24230;BME280;12362;50.004;8.006;2023-04-20T11:07:59;100341.06;;;16.80;79.27
24230;BME280;12362;50.004;8.006;2023-04-20T11:10:41;100325.78;;;17.63;72.04
24230;BME280;12362;50.004;8.006;2023-04-20T11:13:27;100328.34;;;16.97;69.55
24230;BME280;12362;50.004;8.006;2023-04-20T11:15:53;100324.84;;;17.31;69.01
24230;BME280;12362;50.004;8.006;2023-04-20T11:18:19;100322.59;;;17.37;64.57
24230;BME280;12362;50.004;8.006;2023-04-20T11:20:50;100318.34;;;18.01;63.36
24230;BME280;12362;50.004;8.006;2023-04-20T11:23:18;100301.09;;;18.50;63.13
24230;BME280;12362;50.004;8.006;2023-04-20T11:25:50;100298.69;;;17.30;57.92
24230;BME280;12362;50.004;8.006;2023-04-20T11:28:15;100301.09;;;17.76;70.67
24230;BME280;12362;50.004;8.006;2023-04-20T11:30:41;100289.44;;;18.43;60.63
24230;BME280;12362;50.004;8.006;2023-04-20T11:33:10;100280.19;;;18.89;57.71
24230;BME280;12362;50.004;8.006;2023-04-20T11:35:44;100278.50;;;17.74;60.42
24230;BME280;12362;50.004;8.006;2023-04-20T11:38:10;100275.13;;;18.56;63.23
24230;BME280;12362;50.004;8.006;2023-04-20T11:40:39;100268.13;;;18.26;59.59
24230;BME280;12362;50.004;8.006;2023-04-20T11:43:04;100271.78;;;18.34;57.35
24230;BME280;12362;50.004;8.006;2023-04-20T11:45:31;100260.09;;;18.27;59.14
24230;BME280;12362;50.004;8.006;2023-04-20T11:47:59;100242.13;;;18.93;60.14
24230;BME280;12362;50.004;8.006;2023-04-20T11:50:25;100257.25;;;18.50;57.28
24230;BME280;12362;50.004;8.006;2023-04-20T11:52:50;100249.38;;;17.77;59.55
24230;BME280;12362;50.004;8.006;2023-04-20T11:55:16;100238.19;;;19.28;57.12
24230;BME280;12362;50.004;8.006;2023-04-20T11:57:41;100250.22;;;17.66;57.35
24230;BME280;12362;50.004;8.006;2023-04-20T12:00:08;100248.84;;;17.51;59.80
24230;BME280;12362;50.004;8.006;2023-04-20T12:02:39;100242.19;;;18.52;57.12
24230;BME280;12362;50.004;8.006;2023-04-20T12:05:05;100230.34;;;18.67;57.09
24230;BME280;12362;50.004;8.006;2023-04-20T12:07:32;100242.72;;;17.62;56.46
24230;BME280;12362;50.004;8.006;2023-04-20T12:09:58;100262.22;;;16.02;58.85
24230;BME280;12362;50.004;8.006;2023-04-20T12:12:23;100255.53;;;15.39;59.83
24230;BME280;12362;50.004;8.006;2023-04-20T12:14:59;100262.84;;;15.21;60.06
24230;BME280;12362;50.004;8.006;2023-04-20T12:17:25;100256.38;;;15.98;64.18
24230;BME280;12362;50.004;8.006;2023-04-20T12:19:51;100258.28;;;15.60;65.16
24230;BME280;12362;50.004;8.006;2023-04-20T12:22:28;100245.72;;;15.89;63.59
24230;BME280;12362;50.004;8.006;2023-04-20T12:24:56;100246.47;;;16.25;64.52
24230;BME280;12362;50.004;8.006;2023-04-20T12:30:17;100235.66;;;16.64;64.06
24230;BME280;12362;50.004;8.006;2023-04-20T12:32:43;100241.81;;;15.71;65.35
24230;BME280;12362;50.004;8.006;2023-04-20T12:38:35;100248.22;;;14.94;64.54
24230;BME280;12362;50.004;8.006;2023-04-20T12:41:17;100253.56;;;14.92;66.44
24230;BME280;12362;50.004;8.006;2023-04-20T12:47:05;100262.22;;;14.93;72.37
24230;BME280;12362;50.004;8.006;2023-04-20T12:50:19;100253.13;;;15.11;66.61
24230;BME280;12362;50.004;8.006;2023-04-20T12:52:47;100250.81;;;14.94;68.66
24230;BME280;12362;50.004;8.006;2023-04-20T12:55:51;100240.00;;;15.23;63.75
24230;BME280;12362;50.004;8.006;2023-04-20T12:58:36;100237.84;;;15.17;72.43
24230;BME280;12362;50.004;8.006;2023-04-20T13:01:02;100245.84;;;14.91;72.91
24230;BME280;12362;50.004;8.006;2023-04-20T13:03:27;100247.78;;;14.87;67.27
24230;BME280;12362;50.004;8.006;2023-04-20T13:05:53;100251.09;;;14.27;68.39
24230;BME280;12362;50.004;8.006;2023-04-20T13:08:19;100250.16;;;14.02;71.85
24230;BME280;12362;50.004;8.006;2023-04-20T13:10:45;100246.66;;;14.66;72.35
24230;BME280;12362;50.004;8.006;2023-04-20T13:13:11;100242.47;;;14.76;75.60
24230;BME280;12362;50.004;8.006;2023-04-20T13:15:37;100243.81;;;14.32;78.90
24230;BME280;12362;50.004;8.006;2023-04-20T13:18:08;100247.56;;;14.02;75.70
24230;BME280;12362;50.004;8.006;2023-04-20T13:20:35;100241.19;;;14.57;71.34
24230;BME280;12362;50.004;8.006;2023-04-20T13:23:02;100246.72;;;14.52;75.85
24230;BME280;12362;50.004;8.006;2023-04-20T13:25:30;100238.38;;;14.48;81.78
24230;BME280;12362;50.004;8.006;2023-04-20T13:27:58;100242.78;;;14.08;81.65
24230;BME280;12362;50.004;8.006;2023-04-20T13:30:24;100243.84;;;13.65;83.38
24230;BME280;12362;50.004;8.006;2023-04-20T13:32:53;100237.22;;;14.27;78.10
24230;BME280;12362;50.004;8.006;2023-04-20T13:35:22;100244.56;;;13.94;79.31
24230;BME280;12362;50.004;8.006;2023-04-20T13:37:51;100245.38;;;14.47;74.59
24230;BME280;12362;50.004;8.006;2023-04-20T13:40:17;100234.28;;;15.66;66.80
24230;BME280;12362;50.004;8.006;2023-04-20T13:42:42;100226.41;;;15.79;65.64
24230;BME280;12362;50.004;8.006;2023-04-20T13:45:11;100217.69;;;15.78;70.23
24230;BME280;12362;50.004;8.006;2023-04-20T13:47:38;100233.34;;;14.57;68.88
24230;BME280;12362;50.004;8.006;2023-04-20T13:50:05;100231.19;;;14.76;68.77
24230;BME280;12362;50.004;8.006;2023-04-20T13:52:31;100229.16;;;14.30;64.17
24230;BME280;12362;50.004;8.006;2023-04-20T13:54:58;100225.84;;;14.40;66.52
24230;BME280;12362;50.004;8.006;2023-04-20T13:57:24;100220.59;;;14.40;66.26
24230;BME280;12362;50.004;8.006;2023-04-20T13:59:54;100222.88;;;14.20;68.30
24230;BME280;12362;50.004;8.006;2023-04-20T14:02:20;100229.34;;;14.00;70.87
24230;BME280;12362;50.004;8.006;2023-04-20T14:04:48;100226.44;;;14.05;64.31
24230;BME280;12362;50.004;8.006;2023-04-20T14:07:14;100222.34;;;14.15;66.21